Time;durP1;ratioP1;P1;durP2;ratioP2;P2;SDS_P1;SDS_P2;PMS_P1;PMS_P2;Temp;Humidity;BMP_temperature;BMP_pressure;BME280_temperature;BME280_humidity;BME280_pressure;Samples;Min_cycle;Max_cycle;Signal;HPM_P1;HPM_P2
2022/04/27 00:00:49;;;;;;;0.97;0.90;;;17.50;64.10;;;;;;5165891;28;20195;-59
2022/04/27 00:03:43;;;;;;;1.90;1.30;;;17.50;64.20;;;;;;5166255;28;20222;-59
2022/04/27 00:06:35;;;;;;;1.30;1.03;;;17.50;64.20;;;;;;5165167;28;20562;-58
2022/04/27 00:09:28;;;;;;;1.40;0.80;;;17.50;64.20;;;;;;5151736;28;20223;-59
2022/04/27 00:12:20;;;;;;;1.30;1.10;;;17.50;64.20;;;;;;5165700;28;20603;-60
2022/04/27 00:15:14;;;;;;;1.30;0.90;;;17.50;64.10;;;;;;5165551;28;20213;-60
2022/04/27 00:18:06;;;;;;;1.00;0.90;;;17.50;64.10;;;;;;5165554;28;20226;-59
2022/04/27 00:20:59;;;;;;;1.37;0.97;;;17.50;64.10;;;;;;5154985;28;20200;-59
2022/04/27 00:23:51;;;;;;;1.23;1.10;;;17.40;64.10;;;;;;5145993;28;20188;-59
2022/04/27 00:26:43;;;;;;;0.83;0.83;;;17.50;64.10;;;;;;5147601;28;20211;-59
2022/04/27 00:29:35;;;;;;;2.50;1.07;;;17.50;64.10;;;;;;5164812;28;20227;-59
2022/04/27 00:32:28;;;;;;;1.10;0.93;;;17.50;64.70;;;;;;5164478;28;20218;-60
2022/04/27 00:35:20;;;;;;;1.20;1.00;;;17.50;64.10;;;;;;5165399;28;20201;-61
2022/04/27 00:38:13;;;;;;;1.40;1.07;;;17.50;64.10;;;;;;5165675;28;20211;-60
2022/04/27 00:41:05;;;;;;;1.67;1.23;;;17.50;64.20;;;;;;5166170;28;20202;-60
2022/04/27 00:43:57;;;;;;;1.20;1.10;;;17.50;64.20;;;;;;5163383;28;20199;-59
2022/04/27 00:46:49;;;;;;;1.40;1.30;;;17.50;64.10;;;;;;5144476;28;20618;-60
2022/04/27 00:49:43;;;;;;;1.10;1.00;;;17.50;64.10;;;;;;5125580;29;20553;-59
2022/04/27 00:52:35;;;;;;;1.00;0.90;;;17.50;64.20;;;;;;5145069;28;20216;-59
2022/04/27 00:55:30;;;;;;;1.40;1.00;;;17.50;64.20;;;;;;5144551;28;20247;-59
2022/04/27 00:58:25;;;;;;;1.40;1.07;;;17.50;64.20;;;;;;5189272;23;20229;-65
2022/04/27 01:01:17;;;;;;;1.20;0.90;;;17.50;64.10;;;;;;5184192;28;20546;-63
2022/04/27 01:04:09;;;;;;;1.30;0.90;;;17.50;64.20;;;;;;5183560;28;20191;-63
2022/04/27 01:07:02;;;;;;;1.83;0.90;;;17.50;64.10;;;;;;5180026;28;20788;-63
2022/04/27 01:09:55;;;;;;;1.70;1.03;;;17.50;64.10;;;;;;5162369;28;20566;-63
2022/04/27 01:12:49;;;;;;;1.17;1.03;;;17.50;64.10;;;;;;5164459;28;20223;-63
2022/04/27 01:15:41;;;;;;;1.33;1.00;;;17.50;64.10;;;;;;5164709;28;20199;-63
2022/04/27 01:18:34;;;;;;;1.30;1.00;;;17.50;64.20;;;;;;5164675;28;20702;-63
2022/04/27 01:21:27;;;;;;;1.40;1.20;;;17.50;64.10;;;;;;5158997;28;20203;-63
2022/04/27 01:24:21;;;;;;;2.30;0.83;;;17.50;64.20;;;;;;5164263;28;20210;-63
2022/04/27 01:27:13;;;;;;;2.33;1.30;;;17.50;64.20;;;;;;5164504;28;20206;-63
2022/04/27 01:30:06;;;;;;;1.10;1.00;;;17.50;64.10;;;;;;5164088;28;20222;-63
2022/04/27 01:32:58;;;;;;;1.13;1.00;;;17.50;64.10;;;;;;5163549;28;20219;-60
2022/04/27 01:35:50;;;;;;;1.13;1.00;;;17.50;64.20;;;;;;5163488;28;20662;-64
2022/04/27 01:38:44;;;;;;;1.20;1.10;;;17.50;64.20;;;;;;5163076;28;20238;-63
2022/04/27 01:41:37;;;;;;;1.50;0.87;;;17.50;64.20;;;;;;5163863;28;20192;-63
2022/04/27 01:44:29;;;;;;;1.70;1.00;;;17.50;64.20;;;;;;5163373;28;20199;-64
2022/04/27 01:47:21;;;;;;;1.00;0.80;;;17.50;64.20;;;;;;5163415;28;20205;-63
2022/04/27 01:50:13;;;;;;;1.47;1.10;;;17.50;64.20;;;;;;5164080;28;20900;-63
2022/04/27 01:56:17;;;;;;;1.43;1.10;;;17.50;64.10;;;;;;5163090;28;20190;-64
2022/04/27 01:59:09;;;;;;;1.00;0.90;;;17.40;64.20;;;;;;5162959;28;20231;-63
2022/04/27 02:02:01;;;;;;;1.20;0.97;;;17.40;64.10;;;;;;5162190;28;20567;-63
2022/04/27 02:04:54;;;;;;;1.43;1.07;;;17.50;64.10;;;;;;5164024;28;20578;-63
2022/04/27 02:07:46;;;;;;;1.13;0.93;;;17.50;64.10;;;;;;5164494;28;20219;-63
2022/04/27 02:10:39;;;;;;;1.63;1.10;;;17.50;64.20;;;;;;5163915;28;20229;-65
2022/04/27 02:13:33;;;;;;;2.57;1.03;;;17.50;64.20;;;;;;5163659;28;20572;-63
2022/04/27 02:16:26;;;;;;;1.20;0.90;;;17.40;64.10;;;;;;5163587;28;20195;-63
2022/04/27 02:19:20;;;;;;;1.40;0.90;;;17.40;64.20;;;;;;5163323;28;20215;-63
2022/04/27 02:22:12;;;;;;;1.77;1.00;;;17.40;64.10;;;;;;5163685;28;20207;-63
2022/04/27 02:25:05;;;;;;;1.73;1.07;;;17.40;64.10;;;;;;5163189;28;20701;-63
2022/04/27 02:27:58;;;;;;;2.30;1.20;;;17.50;64.10;;;;;;5160240;28;20223;-62
2022/04/27 02:30:51;;;;;;;2.30;0.97;;;17.40;64.10;;;;;;5163997;28;20357;-63
2022/04/27 02:33:43;;;;;;;2.73;1.30;;;17.40;64.20;;;;;;5163356;28;20695;-64
2022/04/27 02:36:35;;;;;;;2.00;1.40;;;17.50;64.20;;;;;;5163307;28;20203;-63
2022/04/27 02:39:27;;;;;;;1.47;1.27;;;17.40;64.10;;;;;;5162880;28;20217;-63
2022/04/27 02:42:19;;;;;;;1.20;0.90;;;17.50;64.10;;;;;;5162682;28;20191;-63
2022/04/27 02:45:12;;;;;;;1.80;1.30;;;17.40;64.10;;;;;;5162076;28;20277;-63
2022/04/27 02:48:06;;;;;;;1.27;1.00;;;17.40;64.10;;;;;;5163259;28;20218;-63
2022/04/27 02:54:07;;;;;;;1.97;0.90;;;17.40;64.10;;;;;;5162010;28;20213;-63
2022/04/27 02:56:59;;;;;;;1.67;1.07;;;17.40;64.10;;;;;;5166632;28;20562;-59
2022/04/27 02:59:51;;;;;;;1.70;1.13;;;17.50;64.10;;;;;;5167527;28;20199;-63
2022/04/27 03:02:44;;;;;;;1.30;1.00;;;17.40;64.10;;;;;;5166938;28;20199;-63
2022/04/27 03:05:37;;;;;;;2.33;1.00;;;17.40;64.10;;;;;;5167249;28;20210;-63
2022/04/27 03:08:29;;;;;;;1.07;0.90;;;17.50;64.10;;;;;;5166890;28;20225;-63
2022/04/27 03:11:21;;;;;;;1.03;0.93;;;17.40;64.00;;;;;;5165899;28;20203;-63
2022/04/27 03:14:13;;;;;;;1.40;0.93;;;17.40;64.10;;;;;;5166251;28;20297;-63
2022/04/27 03:17:05;;;;;;;1.63;1.10;;;17.40;64.10;;;;;;5157281;28;20210;-62
2022/04/27 03:19:57;;;;;;;2.17;1.43;;;17.40;64.10;;;;;;5163873;28;20567;-61
2022/04/27 03:22:51;;;;;;;1.17;1.07;;;17.40;64.00;;;;;;5163176;28;20191;-63
2022/04/27 03:25:43;;;;;;;1.37;1.17;;;17.40;64.10;;;;;;5166076;28;20663;-63
2022/04/27 03:28:35;;;;;;;1.83;0.93;;;17.40;64.10;;;;;;5165919;28;20219;-63
2022/04/27 03:31:28;;;;;;;1.73;1.10;;;17.40;64.10;;;;;;5166727;28;20195;-63
2022/04/27 03:34:20;;;;;;;1.37;1.10;;;17.40;64.10;;;;;;5165290;28;20222;-63
2022/04/27 03:37:12;;;;;;;2.33;1.17;;;17.40;64.10;;;;;;5167534;28;20677;-63
2022/04/27 03:40:07;;;;;;;0.80;0.80;;;17.40;64.00;;;;;;5166506;28;20203;-63
2022/04/27 03:42:59;;;;;;;1.70;1.10;;;17.40;64.00;;;;;;5165872;28;20203;-63
2022/04/27 03:45:51;;;;;;;2.80;1.27;;;17.40;63.90;;;;;;5165822;28;20226;-63
2022/04/27 03:48:43;;;;;;;1.30;1.20;;;17.50;64.50;;;;;;5166568;28;20211;-63
2022/04/27 03:51:35;;;;;;;1.20;1.10;;;17.50;63.80;;;;;;5165008;28;20304;-63
2022/04/27 03:54:27;;;;;;;0.80;0.80;;;17.50;63.80;;;;;;5164257;28;20238;-63
2022/04/27 03:57:21;;;;;;;0.93;0.77;;;17.50;63.90;;;;;;5167781;28;20737;-63
2022/04/27 04:00:14;;;;;;;1.23;0.90;;;17.50;63.80;;;;;;5158276;28;20225;-63
2022/04/27 04:03:06;;;;;;;1.23;1.03;;;17.50;63.80;;;;;;5165730;28;20211;-63
2022/04/27 04:05:58;;;;;;;1.23;0.90;;;17.50;64.00;;;;;;5164295;28;20195;-63
2022/04/27 04:08:50;;;;;;;1.20;1.03;;;17.50;63.80;;;;;;5162940;28;20238;-63
2022/04/27 04:11:44;;;;;;;1.93;0.80;;;17.50;63.80;;;;;;5164896;28;20249;-63
2022/04/27 04:14:37;;;;;;;1.13;1.00;;;17.50;63.80;;;;;;5165854;28;20199;-63
2022/04/27 04:17:29;;;;;;;1.43;1.00;;;17.50;64.00;;;;;;5164740;28;20219;-63
2022/04/27 04:20:21;;;;;;;1.83;1.00;;;17.50;64.00;;;;;;5159587;28;20191;-64
2022/04/27 04:23:14;;;;;;;1.10;0.90;;;17.50;63.90;;;;;;5164606;28;20193;-64
2022/04/27 04:29:15;;;;;;;1.23;1.10;;;17.50;63.90;;;;;;5164906;28;20634;-63
2022/04/27 04:32:09;;;;;;;1.00;0.90;;;17.50;64.00;;;;;;5164674;28;20199;-64
2022/04/27 04:35:01;;;;;;;1.37;0.80;;;17.50;63.90;;;;;;5165497;28;20567;-64
2022/04/27 04:37:55;;;;;;;1.83;0.90;;;17.50;63.90;;;;;;5165166;28;20590;-64
2022/04/27 04:40:47;;;;;;;1.60;1.00;;;17.50;63.90;;;;;;5164881;28;20685;-65
2022/04/27 04:43:39;;;;;;;1.87;1.27;;;17.50;63.90;;;;;;5163683;28;20188;-63
2022/04/27 04:46:31;;;;;;;1.17;0.90;;;17.50;63.80;;;;;;5164542;28;20207;-63
2022/04/27 04:49:24;;;;;;;1.03;0.90;;;17.50;63.90;;;;;;5162053;28;20218;-63
2022/04/27 04:52:16;;;;;;;1.03;0.80;;;17.50;64.00;;;;;;5160779;28;20187;-63
2022/04/27 04:55:09;;;;;;;1.10;1.00;;;17.50;64.00;;;;;;5165906;28;20195;-63
2022/04/27 04:58:02;;;;;;;1.57;1.00;;;17.50;64.00;;;;;;5164842;28;20584;-62
2022/04/27 05:00:54;;;;;;;1.70;1.17;;;17.50;64.00;;;;;;5164680;28;20199;-63
2022/04/27 05:03:46;;;;;;;0.80;0.80;;;17.50;63.80;;;;;;5165583;28;20192;-64
2022/04/27 05:06:40;;;;;;;1.07;0.87;;;17.50;64.00;;;;;;5165400;28;20203;-64
2022/04/27 05:09:32;;;;;;;1.37;1.10;;;17.50;64.00;;;;;;5165103;28;20230;-63
2022/04/27 05:12:24;;;;;;;1.77;1.10;;;17.50;63.80;;;;;;5157733;28;20700;-63
2022/04/27 05:15:16;;;;;;;1.20;1.10;;;17.50;63.90;;;;;;5164361;28;20199;-63
2022/04/27 05:18:08;;;;;;;1.27;0.90;;;17.50;63.90;;;;;;5163675;28;20595;-63
2022/04/27 05:21:00;;;;;;;1.17;1.00;;;17.50;63.90;;;;;;5163019;28;20586;-63
2022/04/27 05:23:54;;;;;;;1.63;1.20;;;17.50;63.80;;;;;;5163984;28;20191;-63
2022/04/27 05:26:46;;;;;;;1.63;1.10;;;17.50;63.90;;;;;;5164186;28;20211;-65
2022/04/27 05:32:48;;;;;;;1.20;1.00;;;17.50;63.90;;;;;;5163873;28;20206;-63
2022/04/27 05:35:40;;;;;;;2.27;1.20;;;17.50;63.80;;;;;;5163839;28;20207;-64
2022/04/27 05:38:32;;;;;;;1.33;0.90;;;17.50;63.80;;;;;;5163585;28;20222;-63
2022/04/27 05:41:26;;;;;;;1.87;1.10;;;17.50;63.80;;;;;;5163215;28;20197;-63
2022/04/27 05:44:19;;;;;;;2.03;1.07;;;17.50;63.80;;;;;;5163334;28;20663;-63
2022/04/27 05:47:12;;;;;;;1.90;1.00;;;17.50;63.90;;;;;;5162976;28;20222;-63
2022/04/27 05:50:05;;;;;;;0.83;0.83;;;17.50;63.90;;;;;;5163074;28;20200;-63
2022/04/27 05:52:58;;;;;;;1.73;1.00;;;17.50;63.80;;;;;;5162679;28;20219;-63
2022/04/27 05:55:50;;;;;;;1.53;1.07;;;17.50;64.00;;;;;;5163060;28;20199;-65
2022/04/27 05:58:44;;;;;;;1.83;1.07;;;17.50;63.70;;;;;;5161280;28;20233;-63
2022/04/27 06:01:37;;;;;;;1.13;0.80;;;17.50;63.70;;;;;;5158507;28;20207;-64
2022/04/27 06:04:29;;;;;;;1.93;1.37;;;17.50;63.70;;;;;;5161292;28;20207;-66
2022/04/27 06:07:21;;;;;;;4.23;1.97;;;17.50;62.90;;;;;;5163354;28;20679;-65
2022/04/27 06:10:13;;;;;;;2.27;1.37;;;17.50;60.10;;;;;;5162710;28;20208;-65
2022/04/27 06:13:06;;;;;;;3.60;1.20;;;17.40;60.00;;;;;;5163156;28;20223;-65
2022/04/27 06:15:59;;;;;;;2.00;1.20;;;17.40;60.30;;;;;;5163060;28;20249;-65
2022/04/27 06:18:51;;;;;;;4.77;1.63;;;17.40;60.60;;;;;;5163706;28;20221;-66
2022/04/27 06:21:43;;;;;;;1.97;1.30;;;17.40;60.90;;;;;;5153167;28;20195;-65
2022/04/27 06:24:35;;;;;;;2.27;1.23;;;17.50;61.20;;;;;;5162672;28;20195;-65
2022/04/27 06:27:27;;;;;;;2.07;1.13;;;17.50;61.40;;;;;;5162817;28;20223;-65
2022/04/27 06:30:20;;;;;;;3.63;1.40;;;17.50;61.70;;;;;;5163220;28;20199;-64
2022/04/27 06:33:13;;;;;;;2.03;1.20;;;17.50;61.80;;;;;;5166145;28;20214;-65
2022/04/27 06:36:05;;;;;;;2.60;1.37;;;17.50;62.00;;;;;;5168502;28;20199;-65
2022/04/27 06:38:57;;;;;;;2.77;1.50;;;17.50;61.90;;;;;;5167331;28;20223;-65
2022/04/27 06:41:50;;;;;;;3.50;1.07;;;17.50;62.00;;;;;;5166846;28;20205;-65
2022/04/27 06:44:42;;;;;;;1.30;1.03;;;17.50;62.10;;;;;;5163603;28;20655;-65
2022/04/27 06:47:34;;;;;;;1.90;1.13;;;17.50;62.20;;;;;;5167072;28;20295;-65
2022/04/27 06:50:27;;;;;;;2.43;1.10;;;17.50;62.30;;;;;;5167464;28;20196;-66
2022/04/27 06:53:19;;;;;;;2.67;1.20;;;17.50;62.30;;;;;;5166899;28;20233;-65
2022/04/27 06:56:11;;;;;;;2.23;1.20;;;17.50;62.40;;;;;;5167138;28;20199;-65
2022/04/27 06:59:03;;;;;;;1.83;1.33;;;17.50;62.40;;;;;;5166455;28;20598;-65
2022/04/27 07:01:55;;;;;;;1.47;0.97;;;17.50;62.40;;;;;;5164433;28;20187;-65
2022/04/27 07:04:52;;;;;;;3.30;1.20;;;17.50;62.40;;;;;;5166904;28;20680;-65
2022/04/27 07:07:45;;;;;;;2.40;1.20;;;17.50;62.50;;;;;;5166259;28;20671;-68
2022/04/27 07:10:37;;;;;;;1.03;0.87;;;17.50;62.60;;;;;;5165765;28;20203;-64
2022/04/27 07:13:30;;;;;;;2.03;1.07;;;17.50;62.50;;;;;;5160204;28;20211;-64
2022/04/27 07:16:22;;;;;;;2.77;1.17;;;17.50;62.50;;;;;;5197423;23;20233;-61
2022/04/27 07:19:14;;;;;;;2.70;1.27;;;17.50;62.60;;;;;;5206615;28;20672;-61
2022/04/27 07:22:06;;;;;;;1.83;0.80;;;17.50;62.60;;;;;;5205910;28;20200;-61
2022/04/27 07:25:00;;;;;;;2.20;1.00;;;17.50;62.60;;;;;;5206815;28;20194;-61
2022/04/27 07:27:52;;;;;;;2.40;1.00;;;17.50;62.60;;;;;;5183993;28;20202;-60
2022/04/27 07:30:45;;;;;;;2.07;1.07;;;17.50;62.60;;;;;;5185643;28;20195;-61
2022/04/27 07:33:37;;;;;;;1.57;1.10;;;17.50;62.70;;;;;;5184901;28;20215;-60
2022/04/27 07:36:29;;;;;;;1.23;1.00;;;17.50;62.80;;;;;;5179982;28;20701;-61
2022/04/27 07:39:21;;;;;;;1.97;1.03;;;17.50;62.80;;;;;;5180431;28;20197;-60
2022/04/27 07:42:15;;;;;;;2.80;1.00;;;17.50;62.80;;;;;;5184223;28;20202;-61
2022/04/27 07:45:08;;;;;;;3.07;1.23;;;17.50;62.90;;;;;;5184733;28;20302;-60
2022/04/27 07:48:00;;;;;;;2.67;1.10;;;17.50;62.90;;;;;;5184131;28;20191;-60
2022/04/27 07:50:52;;;;;;;2.40;1.03;;;17.50;63.00;;;;;;5183830;28;20198;-60
2022/04/27 07:53:44;;;;;;;1.67;1.03;;;17.50;63.00;;;;;;5182714;28;20226;-61
2022/04/27 07:56:36;;;;;;;2.10;0.90;;;17.50;63.00;;;;;;5183975;28;20296;-61
2022/04/27 07:59:30;;;;;;;1.70;1.00;;;17.50;63.00;;;;;;5179953;28;20224;-61
2022/04/27 08:02:22;;;;;;;2.40;1.20;;;17.50;63.60;;;;;;5185735;28;20203;-61
2022/04/27 08:05:15;;;;;;;1.57;0.90;;;17.50;63.00;;;;;;5185650;28;20658;-63
2022/04/27 08:08:08;;;;;;;2.47;0.90;;;17.50;63.10;;;;;;5185041;28;20202;-62
2022/04/27 08:11:00;;;;;;;1.03;0.60;;;17.50;63.30;;;;;;5184595;28;20285;-63
2022/04/27 08:13:52;;;;;;;1.50;0.97;;;17.50;63.30;;;;;;5181725;28;20233;-61
2022/04/27 08:16:46;;;;;;;2.20;1.20;;;17.60;63.20;;;;;;5184649;28;20230;-59
2022/04/27 08:19:38;;;;;;;1.40;0.80;;;17.60;63.10;;;;;;5184863;28;20194;-59
2022/04/27 08:22:31;;;;;;;0.97;0.80;;;17.60;63.10;;;;;;5175697;28;20194;-60
2022/04/27 08:25:23;;;;;;;1.67;0.80;;;17.60;63.20;;;;;;5168344;28;20252;-60
2022/04/27 08:28:16;;;;;;;2.37;1.10;;;17.60;63.20;;;;;;5178661;28;20194;-60
2022/04/27 08:31:09;;;;;;;2.07;1.10;;;17.60;63.20;;;;;;5184506;28;20621;-60
2022/04/27 08:34:02;;;;;;;1.40;1.00;;;17.60;63.30;;;;;;5180614;28;20211;-60
2022/04/27 08:36:54;;;;;;;2.30;0.90;;;17.50;63.20;;;;;;5182665;28;20215;-60
2022/04/27 08:39:46;;;;;;;2.23;1.23;;;17.50;63.20;;;;;;5183889;28;20206;-60
2022/04/27 08:42:38;;;;;;;2.37;1.00;;;17.50;63.10;;;;;;5184717;28;20199;-60
2022/04/27 08:45:32;;;;;;;2.80;1.23;;;17.50;63.20;;;;;;5183592;28;20194;-60
2022/04/27 08:48:24;;;;;;;1.67;0.97;;;17.50;63.30;;;;;;5183921;28;20198;-60
2022/04/27 08:51:18;;;;;;;3.20;1.20;;;17.50;63.30;;;;;;5184245;28;20205;-59
2022/04/27 08:54:10;;;;;;;1.63;0.90;;;17.50;63.20;;;;;;5182514;28;20214;-60
2022/04/27 08:57:05;;;;;;;1.80;0.80;;;17.50;63.30;;;;;;5183775;28;20218;-59
2022/04/27 08:59:57;;;;;;;2.17;0.97;;;17.50;63.30;;;;;;5183362;28;20201;-60
2022/04/27 09:02:53;;;;;;;1.73;1.10;;;17.50;63.40;;;;;;5184202;28;20201;-59
2022/04/27 09:05:50;;;;;;;1.30;0.77;;;17.50;63.40;;;;;;5182398;28;20217;-60
2022/04/27 09:08:45;;;;;;;1.93;0.93;;;17.50;63.40;;;;;;5182126;28;20195;-60
2022/04/27 09:11:37;;;;;;;1.43;1.00;;;17.50;63.30;;;;;;5183459;28;20198;-60
2022/04/27 09:14:37;;;;;;;1.50;1.20;;;17.50;63.30;;;;;;5165450;28;20826;-60
2022/04/27 09:20:50;;;;;;;1.53;0.90;;;17.50;63.30;;;;;;5166312;28;20183;-62
2022/04/27 09:23:45;;;;;;;1.10;0.60;;;17.50;63.50;;;;;;5183715;28;20706;-62
2022/04/27 09:26:39;;;;;;;2.10;0.93;;;17.50;63.60;;;;;;5163058;28;20215;-62
2022/04/27 09:29:31;;;;;;;1.50;0.80;;;17.50;63.60;;;;;;5163280;28;20226;-62
2022/04/27 09:32:24;;;;;;;1.27;0.80;;;17.50;63.60;;;;;;5163692;28;20270;-62
2022/04/27 09:35:30;;;;;;;1.40;0.97;;;17.60;63.70;;;;;;5162809;28;20203;-61
2022/04/27 09:38:23;;;;;;;1.63;0.90;;;17.50;63.60;;;;;;5165105;28;20210;-62
2022/04/27 09:41:37;;;;;;;1.70;1.00;;;17.50;63.60;;;;;;5162867;28;20205;-62
2022/04/27 09:44:30;;;;;;;1.07;0.80;;;17.60;63.60;;;;;;5164487;28;20183;-62
2022/04/27 09:47:22;;;;;;;1.60;0.93;;;17.60;63.70;;;;;;5181506;28;20214;-62
2022/04/27 09:50:15;;;;;;;2.83;0.80;;;17.50;63.60;;;;;;5183452;28;20547;-62
2022/04/27 09:53:08;;;;;;;1.40;1.00;;;17.60;63.70;;;;;;5182936;28;20195;-62
2022/04/27 09:56:02;;;;;;;2.47;1.27;;;17.60;63.60;;;;;;5173471;28;20260;-62
2022/04/27 09:58:57;;;;;;;0.90;0.60;;;17.60;63.60;;;;;;5182910;28;20203;-61
2022/04/27 10:01:50;;;;;;;1.23;0.80;;;17.60;63.70;;;;;;5184042;28;20193;-61
2022/04/27 10:04:43;;;;;;;1.23;0.93;;;17.60;63.70;;;;;;5181650;28;20195;-62
2022/04/27 10:07:36;;;;;;;0.97;0.80;;;17.60;63.70;;;;;;5182723;28;20225;-62
2022/04/27 10:10:28;;;;;;;1.07;0.93;;;17.60;63.70;;;;;;5183338;28;20634;-62
2022/04/27 10:13:21;;;;;;;0.90;0.80;;;17.60;63.70;;;;;;5182313;28;20190;-62
2022/04/27 10:16:17;;;;;;;1.37;0.90;;;17.60;63.70;;;;;;5170560;28;20232;-62
2022/04/27 10:19:10;;;;;;;1.50;0.60;;;17.60;63.60;;;;;;5171779;28;20186;-62
2022/04/27 10:22:05;;;;;;;1.57;0.97;;;17.60;63.60;;;;;;5182064;28;20195;-61
2022/04/27 10:24:58;;;;;;;0.70;0.70;;;17.60;63.60;;;;;;5182939;28;20202;-62
2022/04/27 10:27:50;;;;;;;0.80;0.63;;;17.60;63.60;;;;;;5182870;28;20195;-61
2022/04/27 10:30:43;;;;;;;1.57;1.03;;;17.60;63.60;;;;;;5182115;28;20202;-61
2022/04/27 10:33:49;;;;;;;1.80;0.80;;;17.60;63.60;;;;;;5182258;28;20202;-62
2022/04/27 10:36:41;;;;;;;1.20;0.80;;;17.60;63.70;;;;;;5182647;28;20231;-62
2022/04/27 10:39:34;;;;;;;1.00;0.80;;;17.60;63.70;;;;;;5183140;28;20788;-62
2022/04/27 10:42:30;;;;;;;1.53;0.90;;;17.60;63.70;;;;;;5181722;28;20194;-62
2022/04/27 10:45:25;;;;;;;1.03;0.60;;;17.60;63.70;;;;;;5182913;28;20296;-62
2022/04/27 10:48:18;;;;;;;1.23;0.77;;;17.60;63.70;;;;;;5181286;28;20191;-61
2022/04/27 10:51:12;;;;;;;1.57;0.93;;;17.60;63.70;;;;;;5182371;28;20221;-62
2022/04/27 10:54:05;;;;;;;0.80;0.70;;;17.60;63.70;;;;;;5182155;28;20202;-60
2022/04/27 10:57:41;;;;;;;1.17;0.73;;;17.60;63.70;;;;;;5183216;28;20284;-61
2022/04/27 11:00:33;;;;;;;1.40;0.90;;;17.60;63.70;;;;;;5183117;28;20202;-62
2022/04/27 11:03:26;;;;;;;0.93;0.77;;;17.60;63.70;;;;;;5182650;28;20273;-61
2022/04/27 11:06:21;;;;;;;1.13;0.80;;;17.60;63.70;;;;;;5183097;28;20211;-62
2022/04/27 11:09:17;;;;;;;1.10;0.70;;;17.60;63.70;;;;;;5180153;28;20252;-63
2022/04/27 11:12:12;;;;;;;0.70;0.70;;;17.60;63.70;;;;;;5182967;28;20206;-63
2022/04/27 11:15:05;;;;;;;1.13;0.60;;;17.60;63.70;;;;;;5182698;28;20775;-61
2022/04/27 11:18:01;;;;;;;1.40;1.00;;;17.60;63.70;;;;;;5184769;28;20205;-63
2022/04/27 11:21:01;;;;;;;0.80;0.77;;;17.60;63.80;;;;;;5184374;28;20194;-62
2022/04/27 11:23:58;;;;;;;2.00;0.80;;;17.60;63.70;;;;;;5168961;28;20214;-62
2022/04/27 11:26:50;;;;;;;1.60;0.93;;;17.60;63.80;;;;;;5186354;28;20210;-63
2022/04/27 11:29:42;;;;;;;0.70;0.70;;;17.60;63.80;;;;;;5186332;28;20205;-63
2022/04/27 11:32:35;;;;;;;1.23;1.00;;;17.60;63.90;;;;;;5185947;28;20753;-62
2022/04/27 11:35:38;;;;;;;1.97;1.30;;;17.60;63.90;;;;;;5183623;28;20578;-62
2022/04/27 11:38:36;;;;;;;1.27;0.80;;;17.60;63.90;;;;;;5186210;28;20200;-62
2022/04/27 11:41:37;;;;;;;1.67;0.90;;;17.60;63.90;;;;;;5185666;28;20190;-63
2022/04/27 11:44:30;;;;;;;1.40;0.90;;;17.60;64.00;;;;;;5185465;28;20197;-62
2022/04/27 11:47:27;;;;;;;1.40;1.10;;;17.60;64.00;;;;;;5184521;28;20254;-62
2022/04/27 11:50:19;;;;;;;1.53;0.83;;;17.60;64.00;;;;;;5184813;28;20198;-62
2022/04/27 11:53:12;;;;;;;4.27;1.40;;;17.60;64.00;;;;;;5184891;28;20202;-62
2022/04/27 11:56:04;;;;;;;3.27;1.30;;;17.60;64.10;;;;;;5186083;28;20233;-62
2022/04/27 11:59:07;;;;;;;4.60;1.50;;;17.60;64.10;;;;;;5185840;28;20213;-62
2022/04/27 12:01:59;;;;;;;3.60;1.50;;;17.70;64.10;;;;;;5185350;28;20202;-63
2022/04/27 12:04:52;;;;;;;3.83;1.40;;;17.60;64.00;;;;;;5185287;28;20197;-62
2022/04/27 12:07:50;;;;;;;3.67;1.67;;;17.60;64.00;;;;;;5183933;28;20603;-63
2022/04/27 12:10:43;;;;;;;2.40;1.43;;;17.60;64.00;;;;;;5184556;28;20190;-61
2022/04/27 12:13:35;;;;;;;3.77;1.50;;;17.60;64.00;;;;;;5182827;28;20209;-63
2022/04/27 12:16:30;;;;;;;1.60;1.40;;;17.60;64.00;;;;;;5165838;28;20238;-62
2022/04/27 12:19:28;;;;;;;2.97;1.40;;;17.60;64.00;;;;;;5183452;28;20206;-62
2022/04/27 12:22:20;;;;;;;2.70;1.50;;;17.60;63.90;;;;;;5184529;28;20569;-62
2022/04/27 12:25:13;;;;;;;3.30;1.63;;;17.60;63.80;;;;;;5184658;28;20195;-62
2022/04/27 12:28:07;;;;;;;2.03;1.20;;;17.60;63.80;;;;;;5182752;28;20195;-61
2022/04/27 12:31:00;;;;;;;2.17;1.47;;;17.60;64.00;;;;;;5182881;28;20194;-62
2022/04/27 12:33:58;;;;;;;1.90;1.50;;;17.60;64.00;;;;;;5183204;28;20231;-62
2022/04/27 12:40:14;;;;;;;3.60;1.60;;;17.60;63.80;;;;;;5165002;28;20195;-60
2022/04/27 12:43:07;;;;;;;2.50;1.50;;;17.60;63.70;;;;;;5175049;28;20209;-63
2022/04/27 12:46:04;;;;;;;4.43;1.57;;;17.60;63.60;;;;;;5184748;28;20571;-62
2022/04/27 12:49:02;;;;;;;2.03;1.23;;;17.60;63.40;;;;;;5184766;28;20224;-62
2022/04/27 12:51:55;;;;;;;3.50;1.53;;;17.60;63.40;;;;;;5183906;28;20229;-62
2022/04/27 12:54:50;;;;;;;3.53;1.60;;;17.60;63.30;;;;;;5185687;28;20202;-60
2022/04/27 12:57:45;;;;;;;1.90;1.50;;;17.60;63.40;;;;;;5185094;28;20226;-62
2022/04/27 13:00:39;;;;;;;3.13;1.40;;;17.60;63.50;;;;;;5185195;28;20197;-61
2022/04/27 13:03:33;;;;;;;1.47;1.37;;;17.60;63.50;;;;;;5184765;28;20199;-61
2022/04/27 13:06:29;;;;;;;3.85;1.85;;;17.60;63.30;;;;;;5183998;28;20415;-63
2022/04/27 13:12:31;;;;;;;2.37;1.67;;;17.70;63.20;;;;;;5184626;28;20190;-61
2022/04/27 13:15:23;;;;;;;2.10;1.47;;;17.70;63.00;;;;;;5184767;28;20249;-62
2022/04/27 13:18:16;;;;;;;4.73;1.83;;;17.60;63.10;;;;;;5183580;28;20194;-62
2022/04/27 13:21:08;;;;;;;1.97;1.60;;;17.60;63.10;;;;;;5183493;28;20202;-61
2022/04/27 13:24:03;;;;;;;2.40;1.57;;;17.60;63.00;;;;;;5146510;28;20199;-60
2022/04/27 13:26:55;;;;;;;1.80;1.50;;;17.60;63.10;;;;;;5165180;28;20222;-61
2022/04/27 13:29:47;;;;;;;1.63;1.53;;;17.60;63.10;;;;;;5163151;28;20225;-61
2022/04/27 13:32:41;;;;;;;2.30;1.37;;;17.60;63.10;;;;;;5155294;28;20196;-62
2022/04/27 13:35:33;;;;;;;2.83;1.60;;;17.60;63.20;;;;;;5160586;28;20214;-61
2022/04/27 13:38:26;;;;;;;2.30;1.67;;;17.60;63.20;;;;;;5164981;28;20678;-61
2022/04/27 13:41:21;;;;;;;2.50;1.40;;;17.60;63.40;;;;;;5164216;28;20222;-61
2022/04/27 13:44:13;;;;;;;3.50;1.63;;;17.60;63.40;;;;;;5163048;28;20199;-60
2022/04/27 13:47:06;;;;;;;3.50;1.70;;;17.60;63.40;;;;;;5163776;28;20226;-61
2022/04/27 13:49:58;;;;;;;2.73;1.60;;;17.60;63.40;;;;;;5147511;28;20195;-61
2022/04/27 13:52:51;;;;;;;1.97;1.47;;;17.60;63.40;;;;;;5161897;28;20209;-61
2022/04/27 13:55:43;;;;;;;3.03;1.70;;;17.60;63.40;;;;;;5155314;28;20223;-61
2022/04/27 13:58:36;;;;;;;4.70;1.67;;;17.60;63.30;;;;;;5164042;28;20682;-61
2022/04/27 14:01:29;;;;;;;1.87;1.40;;;17.60;63.50;;;;;;5164137;28;20195;-62
2022/04/27 14:04:21;;;;;;;2.27;1.60;;;17.60;63.40;;;;;;5161767;28;20195;-61
2022/04/27 14:07:13;;;;;;;1.97;1.20;;;17.60;63.60;;;;;;5156282;28;20214;-62
2022/04/27 14:10:06;;;;;;;1.90;1.50;;;17.60;63.60;;;;;;5162530;28;20579;-62
2022/04/27 14:13:11;;;;;;;2.10;1.40;;;17.60;63.60;;;;;;5163707;28;20202;-62
2022/04/27 14:19:15;;;;;;;2.73;1.43;;;17.60;64.30;;;;;;5182774;28;20465;-62
2022/04/27 14:22:11;;;;;;;3.93;1.53;;;17.60;63.70;;;;;;5183243;28;20202;-62
2022/04/27 14:25:04;;;;;;;1.77;1.20;;;17.60;63.70;;;;;;5182832;28;20329;-62
2022/04/27 14:27:56;;;;;;;2.03;1.13;;;17.60;63.70;;;;;;5183006;28;20195;-61
2022/04/27 14:30:48;;;;;;;2.20;1.47;;;17.60;63.80;;;;;;5182920;28;20681;-62
2022/04/27 14:33:43;;;;;;;2.23;1.60;;;17.60;63.70;;;;;;5182654;28;20547;-62
2022/04/27 14:36:35;;;;;;;1.50;1.40;;;17.60;63.70;;;;;;5182024;28;20300;-62
2022/04/27 14:39:28;;;;;;;1.90;1.70;;;17.60;63.70;;;;;;5181635;28;20198;-62
2022/04/27 14:42:21;;;;;;;2.03;1.30;;;17.60;63.80;;;;;;5175701;28;20206;-59
2022/04/27 14:45:13;;;;;;;1.07;1.00;;;17.60;63.80;;;;;;5183036;28;20201;-60
2022/04/27 14:48:07;;;;;;;1.60;1.50;;;17.60;64.00;;;;;;5164302;28;20210;-59
2022/04/27 14:51:01;;;;;;;2.63;1.60;;;17.60;64.00;;;;;;5183557;28;20199;-60
2022/04/27 14:53:53;;;;;;;1.50;1.40;;;17.60;64.00;;;;;;5187835;28;20225;-59
2022/04/27 14:56:46;;;;;;;1.63;1.30;;;17.60;64.00;;;;;;5186709;28;20777;-60
2022/04/27 14:59:39;;;;;;;2.10;1.40;;;17.60;64.10;;;;;;5185675;28;20820;-59
2022/04/27 15:02:32;;;;;;;2.35;1.40;;;17.60;63.70;;;;;;5185279;28;20483;-59
2022/04/27 15:05:24;;;;;;;1.50;1.20;;;17.70;63.30;;;;;;5186487;28;20205;-59
2022/04/27 15:08:17;;;;;;;1.87;1.10;;;17.70;63.40;;;;;;5185081;28;20705;-60
2022/04/27 15:11:10;;;;;;;1.33;1.23;;;17.70;63.50;;;;;;5186001;28;20674;-59
2022/04/27 15:14:02;;;;;;;1.57;1.10;;;17.70;63.50;;;;;;5186363;28;20198;-59
2022/04/27 15:16:54;;;;;;;1.70;1.40;;;17.60;63.60;;;;;;5186075;28;20224;-59
2022/04/27 15:22:41;;;;;;;2.13;1.40;;;17.70;63.70;;;;;;5186480;28;20194;-59
2022/04/27 15:22:58;;;;;;;2.53;1.47;;;17.60;63.60;;;;;;5186331;28;20213;-60
2022/04/27 15:25:52;;;;;;;3.40;1.33;;;17.60;63.70;;;;;;5186551;28;20214;-60
2022/04/27 15:28:44;;;;;;;2.40;1.07;;;17.60;63.70;;;;;;5186313;28;20194;-59